createdAt,value
2022-12-29T00:25:21.847Z,64.72
2022-12-29T00:54:23.083Z,64.63
2022-12-29T01:23:21.774Z,64.67
2022-12-29T01:52:22.614Z,64.63
2022-12-29T02:21:22.832Z,64.61
2022-12-29T02:50:24.016Z,64.54
2022-12-29T03:19:25.413Z,64.48
2022-12-29T03:48:24.947Z,64.49
2022-12-29T04:17:24.431Z,64.41
2022-12-29T04:46:22.975Z,64.42
2022-12-29T05:15:19.398Z,64.37
2022-12-29T05:44:06.873Z,64.33
2022-12-29T06:12:54.897Z,64.57
2022-12-29T06:41:41.371Z,64.36
2022-12-29T07:10:26.484Z,64.44
2022-12-29T07:39:08.563Z,64.6
2022-12-29T08:07:58.289Z,65.69
2022-12-29T08:36:42.071Z,65.66
2022-12-29T09:05:21.234Z,65.41
2022-12-29T09:33:56.076Z,65.43
2022-12-29T10:02:28.631Z,65.27
2022-12-29T10:31:09.569Z,65.14
2022-12-29T10:59:25.669Z,65.44
2022-12-29T11:28:09.228Z,65.48
2022-12-29T11:56:44.043Z,65.54
2022-12-29T12:25:20.465Z,65.5
2022-12-29T12:53:49.144Z,65.44
2022-12-29T13:22:20.706Z,65.37
2022-12-29T13:51:01.521Z,65.41
2022-12-29T14:19:35.695Z,65.33
2022-12-29T14:48:11.641Z,65.29
2022-12-29T15:16:47.487Z,65.48
2022-12-29T15:45:19.992Z,65.36
2022-12-29T16:13:51.548Z,65.4
2022-12-29T16:42:29.307Z,65.36
2022-12-29T17:11:08.762Z,65.35
2022-12-29T17:39:42.057Z,65.31
2022-12-29T18:08:21.465Z,65.27
2022-12-29T18:37:00.537Z,65.21
2022-12-29T19:05:32.152Z,65.21
2022-12-29T19:34:14.788Z,65.19
2022-12-29T20:02:56.161Z,65.17
2022-12-29T20:31:30.486Z,65.16
2022-12-29T21:00:09.096Z,65.22
2022-12-29T21:28:53.621Z,65.18
2022-12-29T21:57:39.873Z,65.18
2022-12-29T22:26:34.539Z,65.15
2022-12-29T22:55:18.415Z,65.18
2022-12-29T23:24:12.590Z,65.16
2022-12-29T23:53:09.938Z,65.13
